SVQ weather

Sevilla Airport
Sevilla, AndalucĂ­a, Spain

Public forecast

Using degrees Celsius for public forecast. Weather courtesy of forecast.io.

Current aviation weather report (METAR) for Sevilla Airport

Retrieved 2019/11/13 16:30 UTC (0 seconds ago):

LEZL 131630Z 26010KT 9999 FEW040 22/09 Q1014 NOSIG

Aviation forecast (TAF) for Sevilla Airport

Retrieved 2019/11/13 15:27 UTC (42 minutes ago):

TAF LEZL 131400Z 1315/1415 25009KT 9999 SCT040 TX21/1315Z TN12/1406Z